Huvudsida
METAR-TAF:

METAR-TAF

Flygplatser :

Ilam flygplats

Ilam, Iran

latitud: 33-35-09N, longitud: 046-24-20E, höjd: 1334 m

Aktuellt väderrapport

Denna rapport gjordes för 36 minuter sedan, klockan 23:00 UTC
Vind 4 kt från sydost
Temperatur 9°C
Fuktighet 25%
Tryck 1021 hPa
Sikt 10 km eller mer
Inga moln under 1 500 m eller inga cumulonimbus

METAR: OICI 152300Z 14004KT CAVOK 09/M10 Q1021 A3015

Tid: 03:06 (23:36 UTC)

Väderprognos

Denna rapport gjordes för 5 timmar och 46 minuter sedan, klockan 17:50 UTC
Prognos gäller från 15 kl. 18 UTC till 16 kl. 24 UTC
Vind 6 kt från ost
Sikt: 8000 m
Blir
från 16 kl. 06 UTC till 16 kl. 09 UTC
Vind 16 kt från ost/nordost

TAF: OICI 151750Z 1518/1624 10006KT 8000 NSC BECMG 1606/1609 06016KT

Aktuella väderrapporter och prognoser från 4000 flygplatser (METAR- och TAF-rapporter).

De tillgängliga stationerna syns som gula och röda prickar på kartan.

För musen över prickarna för att se namnen på stationerna.

Klicka sedan för att få väderrapporter och prognoser.

För att ändra kartan: Klicka på de gröna knapparna med ett svart kors på för att zooma in; den gröna knappen med ett streck på för att zooma ut; eller på de gröna pilarna för angränsande kartor.


METAR-TAF: